sensor_id;sensor_type;location;lat;lon;timestamp;P1;durP1;ratioP1;P2;durP2;ratioP2
57057;SDS011;55017;52.848;6.748;2023-03-01T00:00:21;151.85;;;145.93;;
57057;SDS011;55017;52.848;6.748;2023-03-01T00:02:47;154.35;;;148.50;;
57057;SDS011;55017;52.848;6.748;2023-03-01T00:05:13;157.73;;;151.45;;
57057;SDS011;55017;52.848;6.748;2023-03-01T00:07:39;157.15;;;151.00;;
57057;SDS011;55017;52.848;6.748;2023-03-01T00:10:05;155.43;;;149.20;;
57057;SDS011;55017;52.848;6.748;2023-03-01T00:12:31;155.40;;;149.32;;
57057;SDS011;55017;52.848;6.748;2023-03-01T00:14:57;157.90;;;151.70;;
57057;SDS011;55017;52.848;6.748;2023-03-01T00:17:23;158.18;;;151.98;;
57057;SDS011;55017;52.848;6.748;2023-03-01T00:19:49;156.82;;;150.60;;
57057;SDS011;55017;52.848;6.748;2023-03-01T00:22:15;156.70;;;150.48;;
57057;SDS011;55017;52.848;6.748;2023-03-01T00:24:41;156.00;;;149.65;;
57057;SDS011;55017;52.848;6.748;2023-03-01T00:27:07;156.23;;;150.32;;
57057;SDS011;55017;52.848;6.748;2023-03-01T00:29:33;156.23;;;150.07;;
57057;SDS011;55017;52.848;6.748;2023-03-01T00:31:59;156.00;;;149.73;;
57057;SDS011;55017;52.848;6.748;2023-03-01T00:34:25;158.70;;;152.25;;
57057;SDS011;55017;52.848;6.748;2023-03-01T00:36:51;157.23;;;150.70;;
57057;SDS011;55017;52.848;6.748;2023-03-01T00:39:17;159.75;;;153.35;;
57057;SDS011;55017;52.848;6.748;2023-03-01T00:41:43;158.63;;;152.02;;
57057;SDS011;55017;52.848;6.748;2023-03-01T00:44:09;158.82;;;152.30;;
57057;SDS011;55017;52.848;6.748;2023-03-01T00:46:35;158.95;;;152.60;;
57057;SDS011;55017;52.848;6.748;2023-03-01T00:49:02;158.25;;;151.95;;
57057;SDS011;55017;52.848;6.748;2023-03-01T00:51:29;159.55;;;153.02;;
57057;SDS011;55017;52.848;6.748;2023-03-01T00:53:56;159.77;;;153.38;;
57057;SDS011;55017;52.848;6.748;2023-03-01T00:56:22;156.68;;;150.30;;
57057;SDS011;55017;52.848;6.748;2023-03-01T00:58:48;158.38;;;151.63;;
57057;SDS011;55017;52.848;6.748;2023-03-01T01:01:16;156.90;;;150.48;;
57057;SDS011;55017;52.848;6.748;2023-03-01T01:03:53;159.35;;;152.88;;
57057;SDS011;55017;52.848;6.748;2023-03-01T01:06:21;159.52;;;153.02;;
57057;SDS011;55017;52.848;6.748;2023-03-01T01:08:48;155.88;;;149.77;;
57057;SDS011;55017;52.848;6.748;2023-03-01T01:11:15;154.75;;;148.25;;
57057;SDS011;55017;52.848;6.748;2023-03-01T01:13:41;158.98;;;152.25;;
57057;SDS011;55017;52.848;6.748;2023-03-01T01:16:08;160.98;;;154.30;;
57057;SDS011;55017;52.848;6.748;2023-03-01T01:18:34;158.15;;;151.50;;
57057;SDS011;55017;52.848;6.748;2023-03-01T01:21:07;159.43;;;152.93;;
57057;SDS011;55017;52.848;6.748;2023-03-01T01:23:33;160.43;;;153.70;;
57057;SDS011;55017;52.848;6.748;2023-03-01T01:26:03;157.32;;;150.73;;
57057;SDS011;55017;52.848;6.748;2023-03-01T01:28:29;162.25;;;155.27;;
57057;SDS011;55017;52.848;6.748;2023-03-01T01:30:55;160.25;;;153.43;;
57057;SDS011;55017;52.848;6.748;2023-03-01T01:33:21;160.50;;;153.80;;
57057;SDS011;55017;52.848;6.748;2023-03-01T01:35:47;157.63;;;151.00;;
57057;SDS011;55017;52.848;6.748;2023-03-01T01:38:13;160.27;;;153.48;;
57057;SDS011;55017;52.848;6.748;2023-03-01T01:40:46;159.57;;;152.80;;
57057;SDS011;55017;52.848;6.748;2023-03-01T01:43:20;159.93;;;153.43;;
57057;SDS011;55017;52.848;6.748;2023-03-01T01:45:46;157.35;;;150.93;;
57057;SDS011;55017;52.848;6.748;2023-03-01T01:48:14;160.27;;;153.68;;
57057;SDS011;55017;52.848;6.748;2023-03-01T01:50:42;156.10;;;149.85;;
57057;SDS011;55017;52.848;6.748;2023-03-01T01:53:11;156.57;;;149.90;;
57057;SDS011;55017;52.848;6.748;2023-03-01T01:55:39;160.65;;;153.93;;
57057;SDS011;55017;52.848;6.748;2023-03-01T01:58:07;159.13;;;152.45;;
57057;SDS011;55017;52.848;6.748;2023-03-01T02:00:34;156.15;;;149.73;;
57057;SDS011;55017;52.848;6.748;2023-03-01T02:03:10;161.10;;;154.23;;
57057;SDS011;55017;52.848;6.748;2023-03-01T02:05:46;158.30;;;151.70;;
57057;SDS011;55017;52.848;6.748;2023-03-01T02:08:14;158.90;;;152.07;;
57057;SDS011;55017;52.848;6.748;2023-03-01T02:10:40;157.60;;;151.30;;
57057;SDS011;55017;52.848;6.748;2023-03-01T02:13:06;158.07;;;151.68;;
57057;SDS011;55017;52.848;6.748;2023-03-01T02:15:33;159.80;;;153.25;;
57057;SDS011;55017;52.848;6.748;2023-03-01T02:18:00;159.43;;;152.90;;
57057;SDS011;55017;52.848;6.748;2023-03-01T02:20:28;160.27;;;153.57;;
57057;SDS011;55017;52.848;6.748;2023-03-01T02:22:56;155.88;;;149.65;;
57057;SDS011;55017;52.848;6.748;2023-03-01T02:25:25;160.68;;;153.85;;
57057;SDS011;55017;52.848;6.748;2023-03-01T02:30:27;157.88;;;151.57;;
57057;SDS011;55017;52.848;6.748;2023-03-01T02:32:53;159.77;;;153.35;;
57057;SDS011;55017;52.848;6.748;2023-03-01T02:37:47;158.63;;;152.38;;
57057;SDS011;55017;52.848;6.748;2023-03-01T02:40:15;156.20;;;149.85;;
57057;SDS011;55017;52.848;6.748;2023-03-01T02:42:55;161.00;;;154.65;;
57057;SDS011;55017;52.848;6.748;2023-03-01T02:45:21;160.80;;;154.43;;
57057;SDS011;55017;52.848;6.748;2023-03-01T02:47:48;160.77;;;154.27;;
57057;SDS011;55017;52.848;6.748;2023-03-01T02:50:18;157.40;;;151.25;;
57057;SDS011;55017;52.848;6.748;2023-03-01T02:53:19;160.23;;;153.82;;
57057;SDS011;55017;52.848;6.748;2023-03-01T02:55:36;158.35;;;152.13;;
57057;SDS011;55017;52.848;6.748;2023-03-01T02:58:03;161.88;;;155.32;;
57057;SDS011;55017;52.848;6.748;2023-03-01T03:00:31;159.43;;;153.02;;
57057;SDS011;55017;52.848;6.748;2023-03-01T03:02:59;160.88;;;153.95;;
57057;SDS011;55017;52.848;6.748;2023-03-01T03:05:28;161.68;;;154.82;;
57057;SDS011;55017;52.848;6.748;2023-03-01T03:07:55;160.63;;;154.13;;
57057;SDS011;55017;52.848;6.748;2023-03-01T03:10:25;162.73;;;156.13;;
57057;SDS011;55017;52.848;6.748;2023-03-01T03:12:53;161.00;;;154.50;;
57057;SDS011;55017;52.848;6.748;2023-03-01T03:15:20;161.10;;;154.45;;
57057;SDS011;55017;52.848;6.748;2023-03-01T03:17:47;158.77;;;152.18;;
57057;SDS011;55017;52.848;6.748;2023-03-01T03:20:14;159.70;;;153.07;;
57057;SDS011;55017;52.848;6.748;2023-03-01T03:22:44;162.50;;;155.40;;
57057;SDS011;55017;52.848;6.748;2023-03-01T03:25:10;162.10;;;155.40;;
57057;SDS011;55017;52.848;6.748;2023-03-01T03:27:40;159.77;;;152.93;;
57057;SDS011;55017;52.848;6.748;2023-03-01T03:30:08;159.50;;;152.98;;
57057;SDS011;55017;52.848;6.748;2023-03-01T03:32:38;161.50;;;155.00;;
57057;SDS011;55017;52.848;6.748;2023-03-01T03:35:04;161.48;;;154.98;;
57057;SDS011;55017;52.848;6.748;2023-03-01T03:37:40;156.30;;;149.63;;
57057;SDS011;55017;52.848;6.748;2023-03-01T03:40:35;162.55;;;155.63;;
57057;SDS011;55017;52.848;6.748;2023-03-01T03:43:02;161.70;;;155.13;;
57057;SDS011;55017;52.848;6.748;2023-03-01T03:45:29;160.95;;;154.55;;
57057;SDS011;55017;52.848;6.748;2023-03-01T03:47:58;159.38;;;153.02;;
57057;SDS011;55017;52.848;6.748;2023-03-01T03:50:24;159.75;;;153.27;;
57057;SDS011;55017;52.848;6.748;2023-03-01T03:52:50;159.63;;;153.23;;
57057;SDS011;55017;52.848;6.748;2023-03-01T03:55:16;162.32;;;155.93;;
57057;SDS011;55017;52.848;6.748;2023-03-01T03:57:44;159.10;;;152.75;;
57057;SDS011;55017;52.848;6.748;2023-03-01T04:00:14;157.95;;;151.60;;
57057;SDS011;55017;52.848;6.748;2023-03-01T04:02:41;160.32;;;153.82;;
57057;SDS011;55017;52.848;6.748;2023-03-01T04:05:07;161.43;;;155.00;;
57057;SDS011;55017;52.848;6.748;2023-03-01T04:07:37;163.10;;;156.35;;
57057;SDS011;55017;52.848;6.748;2023-03-01T04:10:07;160.88;;;154.38;;
57057;SDS011;55017;52.848;6.748;2023-03-01T04:12:34;160.25;;;153.57;;
57057;SDS011;55017;52.848;6.748;2023-03-01T04:15:00;159.93;;;153.45;;
57057;SDS011;55017;52.848;6.748;2023-03-01T04:17:27;159.73;;;153.00;;
57057;SDS011;55017;52.848;6.748;2023-03-01T04:19:53;159.45;;;153.23;;
57057;SDS011;55017;52.848;6.748;2023-03-01T04:22:19;160.82;;;154.48;;
57057;SDS011;55017;52.848;6.748;2023-03-01T04:24:45;160.23;;;153.77;;
57057;SDS011;55017;52.848;6.748;2023-03-01T04:27:11;160.15;;;153.55;;
57057;SDS011;55017;52.848;6.748;2023-03-01T04:29:37;160.38;;;153.75;;
57057;SDS011;55017;52.848;6.748;2023-03-01T04:32:03;162.02;;;155.45;;
57057;SDS011;55017;52.848;6.748;2023-03-01T04:34:29;162.00;;;155.30;;
57057;SDS011;55017;52.848;6.748;2023-03-01T04:36:55;163.65;;;157.15;;
57057;SDS011;55017;52.848;6.748;2023-03-01T04:39:22;162.85;;;156.32;;
57057;SDS011;55017;52.848;6.748;2023-03-01T04:41:48;163.48;;;156.88;;
57057;SDS011;55017;52.848;6.748;2023-03-01T04:44:14;161.93;;;155.45;;
57057;SDS011;55017;52.848;6.748;2023-03-01T04:46:40;161.30;;;154.85;;
57057;SDS011;55017;52.848;6.748;2023-03-01T04:49:07;162.30;;;155.93;;
57057;SDS011;55017;52.848;6.748;2023-03-01T04:51:33;161.07;;;154.55;;
57057;SDS011;55017;52.848;6.748;2023-03-01T04:53:59;162.68;;;156.18;;
57057;SDS011;55017;52.848;6.748;2023-03-01T04:56:25;161.95;;;155.30;;
57057;SDS011;55017;52.848;6.748;2023-03-01T04:58:53;162.10;;;155.70;;
57057;SDS011;55017;52.848;6.748;2023-03-01T05:01:20;162.45;;;155.73;;
57057;SDS011;55017;52.848;6.748;2023-03-01T05:03:47;161.35;;;154.93;;
57057;SDS011;55017;52.848;6.748;2023-03-01T05:06:13;161.25;;;154.65;;
57057;SDS011;55017;52.848;6.748;2023-03-01T05:08:39;161.88;;;155.13;;
57057;SDS011;55017;52.848;6.748;2023-03-01T05:11:05;161.68;;;155.20;;
57057;SDS011;55017;52.848;6.748;2023-03-01T05:13:34;163.57;;;156.88;;
57057;SDS011;55017;52.848;6.748;2023-03-01T05:16:00;161.55;;;155.18;;
57057;SDS011;55017;52.848;6.748;2023-03-01T05:18:27;159.70;;;153.18;;
57057;SDS011;55017;52.848;6.748;2023-03-01T05:21:00;160.88;;;154.50;;
57057;SDS011;55017;52.848;6.748;2023-03-01T05:23:29;160.15;;;153.63;;
57057;SDS011;55017;52.848;6.748;2023-03-01T05:25:57;159.85;;;153.45;;
57057;SDS011;55017;52.848;6.748;2023-03-01T05:28:24;159.98;;;153.48;;
57057;SDS011;55017;52.848;6.748;2023-03-01T05:30:50;159.50;;;153.20;;
57057;SDS011;55017;52.848;6.748;2023-03-01T05:33:17;162.98;;;156.43;;
57057;SDS011;55017;52.848;6.748;2023-03-01T05:35:44;158.40;;;152.07;;
57057;SDS011;55017;52.848;6.748;2023-03-01T05:38:11;160.68;;;154.25;;
57057;SDS011;55017;52.848;6.748;2023-03-01T05:40:40;159.15;;;152.73;;
57057;SDS011;55017;52.848;6.748;2023-03-01T05:43:07;161.07;;;154.48;;
57057;SDS011;55017;52.848;6.748;2023-03-01T05:45:33;160.13;;;153.80;;
57057;SDS011;55017;52.848;6.748;2023-03-01T05:48:01;161.40;;;154.88;;
57057;SDS011;55017;52.848;6.748;2023-03-01T05:50:28;160.70;;;154.30;;
57057;SDS011;55017;52.848;6.748;2023-03-01T05:55:26;163.00;;;156.32;;
57057;SDS011;55017;52.848;6.748;2023-03-01T05:57:57;160.13;;;153.02;;
57057;SDS011;55017;52.848;6.748;2023-03-01T06:00:24;161.02;;;154.48;;
57057;SDS011;55017;52.848;6.748;2023-03-01T06:02:50;159.77;;;153.02;;
57057;SDS011;55017;52.848;6.748;2023-03-01T06:05:17;160.15;;;153.65;;
57057;SDS011;55017;52.848;6.748;2023-03-01T06:07:43;161.13;;;154.63;;
57057;SDS011;55017;52.848;6.748;2023-03-01T06:10:10;160.68;;;154.02;;
57057;SDS011;55017;52.848;6.748;2023-03-01T06:12:36;159.88;;;153.32;;
57057;SDS011;55017;52.848;6.748;2023-03-01T06:15:03;162.07;;;155.25;;
57057;SDS011;55017;52.848;6.748;2023-03-01T06:17:30;160.52;;;153.75;;
57057;SDS011;55017;52.848;6.748;2023-03-01T06:19:56;161.75;;;155.02;;
57057;SDS011;55017;52.848;6.748;2023-03-01T06:22:22;162.90;;;156.07;;
57057;SDS011;55017;52.848;6.748;2023-03-01T06:24:48;162.38;;;155.48;;
57057;SDS011;55017;52.848;6.748;2023-03-01T06:27:14;163.27;;;156.48;;
57057;SDS011;55017;52.848;6.748;2023-03-01T06:29:40;160.93;;;153.85;;
57057;SDS011;55017;52.848;6.748;2023-03-01T06:32:07;163.80;;;156.98;;
57057;SDS011;55017;52.848;6.748;2023-03-01T06:34:33;162.30;;;155.40;;
57057;SDS011;55017;52.848;6.748;2023-03-01T06:36:59;164.18;;;157.23;;
57057;SDS011;55017;52.848;6.748;2023-03-01T06:39:27;162.75;;;156.02;;
57057;SDS011;55017;52.848;6.748;2023-03-01T06:41:53;162.35;;;155.45;;
57057;SDS011;55017;52.848;6.748;2023-03-01T06:44:19;165.02;;;157.93;;
57057;SDS011;55017;52.848;6.748;2023-03-01T06:46:45;163.52;;;156.65;;
57057;SDS011;55017;52.848;6.748;2023-03-01T06:49:11;165.50;;;158.48;;
57057;SDS011;55017;52.848;6.748;2023-03-01T06:51:37;162.95;;;156.15;;
57057;SDS011;55017;52.848;6.748;2023-03-01T06:54:04;165.80;;;158.55;;
57057;SDS011;55017;52.848;6.748;2023-03-01T06:56:30;161.75;;;155.15;;
57057;SDS011;55017;52.848;6.748;2023-03-01T06:58:56;162.10;;;155.48;;
57057;SDS011;55017;52.848;6.748;2023-03-01T07:01:23;162.48;;;155.88;;
57057;SDS011;55017;52.848;6.748;2023-03-01T07:03:49;161.93;;;155.32;;
57057;SDS011;55017;52.848;6.748;2023-03-01T07:06:15;161.88;;;155.00;;
57057;SDS011;55017;52.848;6.748;2023-03-01T07:08:41;163.00;;;155.95;;
57057;SDS011;55017;52.848;6.748;2023-03-01T07:11:07;162.63;;;155.93;;
57057;SDS011;55017;52.848;6.748;2023-03-01T07:13:33;163.20;;;156.43;;
57057;SDS011;55017;52.848;6.748;2023-03-01T07:15:59;166.52;;;159.13;;
57057;SDS011;55017;52.848;6.748;2023-03-01T07:18:25;165.35;;;158.45;;
57057;SDS011;55017;52.848;6.748;2023-03-01T07:20:51;162.70;;;156.10;;
57057;SDS011;55017;52.848;6.748;2023-03-01T07:23:17;164.02;;;157.20;;
57057;SDS011;55017;52.848;6.748;2023-03-01T07:25:43;163.80;;;156.63;;
57057;SDS011;55017;52.848;6.748;2023-03-01T07:28:09;163.20;;;156.55;;
57057;SDS011;55017;52.848;6.748;2023-03-01T07:30:35;162.85;;;155.82;;
57057;SDS011;55017;52.848;6.748;2023-03-01T07:33:01;162.20;;;155.45;;
57057;SDS011;55017;52.848;6.748;2023-03-01T07:35:27;160.35;;;153.75;;
57057;SDS011;55017;52.848;6.748;2023-03-01T07:37:53;160.35;;;153.57;;
57057;SDS011;55017;52.848;6.748;2023-03-01T07:40:19;160.63;;;153.98;;
57057;SDS011;55017;52.848;6.748;2023-03-01T07:42:45;160.15;;;153.52;;
57057;SDS011;55017;52.848;6.748;2023-03-01T07:45:11;160.07;;;153.68;;
57057;SDS011;55017;52.848;6.748;2023-03-01T07:47:38;160.32;;;153.63;;
57057;SDS011;55017;52.848;6.748;2023-03-01T07:50:04;161.93;;;155.25;;
57057;SDS011;55017;52.848;6.748;2023-03-01T07:52:30;160.45;;;153.73;;
57057;SDS011;55017;52.848;6.748;2023-03-01T07:54:56;162.15;;;154.88;;
57057;SDS011;55017;52.848;6.748;2023-03-01T07:57:23;160.52;;;153.73;;
57057;SDS011;55017;52.848;6.748;2023-03-01T07:59:49;158.80;;;151.88;;
57057;SDS011;55017;52.848;6.748;2023-03-01T08:02:15;161.02;;;154.07;;
57057;SDS011;55017;52.848;6.748;2023-03-01T08:04:41;157.65;;;150.63;;
57057;SDS011;55017;52.848;6.748;2023-03-01T08:07:07;159.63;;;152.52;;
57057;SDS011;55017;52.848;6.748;2023-03-01T08:09:34;162.38;;;155.23;;
57057;SDS011;55017;52.848;6.748;2023-03-01T08:12:01;156.70;;;149.75;;
57057;SDS011;55017;52.848;6.748;2023-03-01T08:14:29;157.35;;;150.35;;
57057;SDS011;55017;52.848;6.748;2023-03-01T08:16:55;156.13;;;149.15;;
57057;SDS011;55017;52.848;6.748;2023-03-01T08:19:21;158.98;;;151.50;;
57057;SDS011;55017;52.848;6.748;2023-03-01T08:21:47;164.43;;;156.98;;
57057;SDS011;55017;52.848;6.748;2023-03-01T08:24:13;158.73;;;151.82;;
57057;SDS011;55017;52.848;6.748;2023-03-01T08:26:39;160.35;;;153.05;;
57057;SDS011;55017;52.848;6.748;2023-03-01T08:29:05;160.25;;;153.02;;
57057;SDS011;55017;52.848;6.748;2023-03-01T08:31:35;159.07;;;151.82;;
57057;SDS011;55017;52.848;6.748;2023-03-01T08:34:03;162.93;;;155.50;;
57057;SDS011;55017;52.848;6.748;2023-03-01T08:36:30;163.32;;;156.13;;
57057;SDS011;55017;52.848;6.748;2023-03-01T08:38:57;159.57;;;152.70;;
57057;SDS011;55017;52.848;6.748;2023-03-01T08:41:23;163.73;;;156.55;;
57057;SDS011;55017;52.848;6.748;2023-03-01T08:43:49;160.00;;;152.90;;
57057;SDS011;55017;52.848;6.748;2023-03-01T08:46:15;161.23;;;154.10;;
57057;SDS011;55017;52.848;6.748;2023-03-01T08:48:41;160.93;;;153.75;;
57057;SDS011;55017;52.848;6.748;2023-03-01T08:51:14;161.77;;;154.68;;
57057;SDS011;55017;52.848;6.748;2023-03-01T08:53:40;160.88;;;153.95;;
57057;SDS011;55017;52.848;6.748;2023-03-01T08:56:07;162.05;;;155.20;;
57057;SDS011;55017;52.848;6.748;2023-03-01T08:58:33;162.18;;;155.23;;
57057;SDS011;55017;52.848;6.748;2023-03-01T09:00:59;159.07;;;152.23;;
57057;SDS011;55017;52.848;6.748;2023-03-01T09:03:25;155.23;;;148.75;;
57057;SDS011;55017;52.848;6.748;2023-03-01T09:05:51;159.38;;;152.45;;
57057;SDS011;55017;52.848;6.748;2023-03-01T09:08:18;161.65;;;154.57;;
57057;SDS011;55017;52.848;6.748;2023-03-01T09:10:44;161.50;;;154.70;;
57057;SDS011;55017;52.848;6.748;2023-03-01T09:13:10;160.93;;;154.02;;
57057;SDS011;55017;52.848;6.748;2023-03-01T09:15:37;160.60;;;153.90;;
57057;SDS011;55017;52.848;6.748;2023-03-01T09:18:03;159.82;;;152.95;;
57057;SDS011;55017;52.848;6.748;2023-03-01T09:20:30;156.57;;;150.15;;
57057;SDS011;55017;52.848;6.748;2023-03-01T09:22:56;158.75;;;151.90;;
57057;SDS011;55017;52.848;6.748;2023-03-01T09:25:22;158.50;;;151.68;;
57057;SDS011;55017;52.848;6.748;2023-03-01T09:27:51;158.48;;;151.68;;
57057;SDS011;55017;52.848;6.748;2023-03-01T09:30:18;157.50;;;150.80;;
57057;SDS011;55017;52.848;6.748;2023-03-01T09:32:44;161.18;;;154.05;;
57057;SDS011;55017;52.848;6.748;2023-03-01T09:35:10;153.38;;;147.00;;
57057;SDS011;55017;52.848;6.748;2023-03-01T09:37:37;150.32;;;144.35;;
57057;SDS011;55017;52.848;6.748;2023-03-01T09:40:08;151.35;;;145.20;;
57057;SDS011;55017;52.848;6.748;2023-03-01T09:42:45;156.00;;;149.80;;
57057;SDS011;55017;52.848;6.748;2023-03-01T09:45:15;153.98;;;147.38;;
57057;SDS011;55017;52.848;6.748;2023-03-01T09:47:45;155.40;;;149.23;;
57057;SDS011;55017;52.848;6.748;2023-03-01T09:50:15;154.63;;;148.30;;
57057;SDS011;55017;52.848;6.748;2023-03-01T09:52:43;146.02;;;140.40;;
57057;SDS011;55017;52.848;6.748;2023-03-01T09:55:16;147.65;;;142.35;;
57057;SDS011;55017;52.848;6.748;2023-03-01T09:57:50;145.90;;;140.65;;
57057;SDS011;55017;52.848;6.748;2023-03-01T10:05:24;141.38;;;136.27;;
57057;SDS011;55017;52.848;6.748;2023-03-01T10:13:00;144.57;;;139.68;;
57057;SDS011;55017;52.848;6.748;2023-03-01T10:15:34;138.98;;;134.30;;
57057;SDS011;55017;52.848;6.748;2023-03-01T10:18:03;139.32;;;134.80;;
57057;SDS011;55017;52.848;6.748;2023-03-01T10:23:04;144.35;;;139.52;;
57057;SDS011;55017;52.848;6.748;2023-03-01T10:28:09;139.65;;;135.05;;
57057;SDS011;55017;52.848;6.748;2023-03-01T10:30:37;138.82;;;134.13;;
57057;SDS011;55017;52.848;6.748;2023-03-01T10:33:08;135.87;;;131.37;;
57057;SDS011;55017;52.848;6.748;2023-03-01T10:35:39;137.60;;;133.00;;
57057;SDS011;55017;52.848;6.748;2023-03-01T10:38:10;139.98;;;135.20;;
57057;SDS011;55017;52.848;6.748;2023-03-01T10:40:49;138.90;;;134.20;;
57057;SDS011;55017;52.848;6.748;2023-03-01T10:43:15;139.05;;;134.35;;
57057;SDS011;55017;52.848;6.748;2023-03-01T10:45:41;138.57;;;133.90;;
57057;SDS011;55017;52.848;6.748;2023-03-01T10:50:37;139.15;;;134.50;;
57057;SDS011;55017;52.848;6.748;2023-03-01T10:53:05;136.95;;;132.30;;
57057;SDS011;55017;52.848;6.748;2023-03-01T10:55:37;143.82;;;138.90;;
57057;SDS011;55017;52.848;6.748;2023-03-01T10:58:21;140.25;;;135.45;;
57057;SDS011;55017;52.848;6.748;2023-03-01T11:00:54;138.60;;;133.90;;
57057;SDS011;55017;52.848;6.748;2023-03-01T11:03:25;142.40;;;137.43;;
57057;SDS011;55017;52.848;6.748;2023-03-01T11:11:03;141.32;;;136.52;;
57057;SDS011;55017;52.848;6.748;2023-03-01T11:13:29;137.40;;;132.57;;
57057;SDS011;55017;52.848;6.748;2023-03-01T11:15:59;141.07;;;136.18;;
57057;SDS011;55017;52.848;6.748;2023-03-01T11:18:25;142.55;;;137.77;;
57057;SDS011;55017;52.848;6.748;2023-03-01T11:20:52;145.75;;;140.75;;
57057;SDS011;55017;52.848;6.748;2023-03-01T11:23:19;141.70;;;136.80;;
57057;SDS011;55017;52.848;6.748;2023-03-01T11:25:48;143.38;;;138.20;;
57057;SDS011;55017;52.848;6.748;2023-03-01T11:28:17;139.80;;;134.95;;
57057;SDS011;55017;52.848;6.748;2023-03-01T11:38:24;139.93;;;135.05;;
57057;SDS011;55017;52.848;6.748;2023-03-01T11:48:52;140.98;;;136.02;;
57057;SDS011;55017;52.848;6.748;2023-03-01T11:51:41;139.18;;;134.43;;
57057;SDS011;55017;52.848;6.748;2023-03-01T11:56:47;142.07;;;137.18;;
57057;SDS011;55017;52.848;6.748;2023-03-01T12:09:17;139.68;;;134.88;;
57057;SDS011;55017;52.848;6.748;2023-03-01T12:11:55;134.82;;;130.13;;
57057;SDS011;55017;52.848;6.748;2023-03-01T12:27:55;114.10;;;110.10;;
57057;SDS011;55017;52.848;6.748;2023-03-01T12:29:56;115.82;;;111.78;;
57057;SDS011;55017;52.848;6.748;2023-03-01T12:43:04;108.30;;;104.53;;
57057;SDS011;55017;52.848;6.748;2023-03-01T12:53:03;106.00;;;102.32;;
57057;SDS011;55017;52.848;6.748;2023-03-01T12:58:01;107.90;;;104.20;;
57057;SDS011;55017;52.848;6.748;2023-03-01T13:00:40;111.57;;;107.68;;
57057;SDS011;55017;52.848;6.748;2023-03-01T13:03:13;114.13;;;110.22;;
57057;SDS011;55017;52.848;6.748;2023-03-01T13:05:52;112.43;;;108.53;;
57057;SDS011;55017;52.848;6.748;2023-03-01T13:08:29;112.35;;;108.30;;
57057;SDS011;55017;52.848;6.748;2023-03-01T13:11:04;114.93;;;110.93;;
57057;SDS011;55017;52.848;6.748;2023-03-01T13:13:31;115.07;;;111.07;;
57057;SDS011;55017;52.848;6.748;2023-03-01T13:15:57;113.60;;;109.70;;
57057;SDS011;55017;52.848;6.748;2023-03-01T13:18:43;113.93;;;109.97;;
57057;SDS011;55017;52.848;6.748;2023-03-01T13:21:09;113.63;;;109.53;;
57057;SDS011;55017;52.848;6.748;2023-03-01T13:23:36;117.07;;;112.97;;
57057;SDS011;55017;52.848;6.748;2023-03-01T13:26:10;118.25;;;114.03;;
57057;SDS011;55017;52.848;6.748;2023-03-01T13:36:10;121.20;;;116.85;;
57057;SDS011;55017;52.848;6.748;2023-03-01T13:41:06;124.43;;;120.00;;
57057;SDS011;55017;52.848;6.748;2023-03-01T13:43:40;121.22;;;116.93;;
57057;SDS011;55017;52.848;6.748;2023-03-01T13:46:08;125.47;;;120.68;;
57057;SDS011;55017;52.848;6.748;2023-03-01T13:48:36;128.13;;;123.53;;
57057;SDS011;55017;52.848;6.748;2023-03-01T13:51:03;126.68;;;121.88;;
57057;SDS011;55017;52.848;6.748;2023-03-01T13:53:31;125.72;;;121.13;;
57057;SDS011;55017;52.848;6.748;2023-03-01T13:56:03;126.47;;;121.82;;
57057;SDS011;55017;52.848;6.748;2023-03-01T13:58:33;131.93;;;127.18;;
57057;SDS011;55017;52.848;6.748;2023-03-01T14:04:26;135.57;;;130.55;;
57057;SDS011;55017;52.848;6.748;2023-03-01T14:06:52;133.32;;;128.52;;
57057;SDS011;55017;52.848;6.748;2023-03-01T14:09:24;135.52;;;130.52;;
57057;SDS011;55017;52.848;6.748;2023-03-01T14:17:15;132.73;;;127.82;;
57057;SDS011;55017;52.848;6.748;2023-03-01T14:19:36;133.68;;;128.77;;
57057;SDS011;55017;52.848;6.748;2023-03-01T14:24:46;134.40;;;129.48;;
57057;SDS011;55017;52.848;6.748;2023-03-01T14:27:14;133.95;;;129.15;;
57057;SDS011;55017;52.848;6.748;2023-03-01T14:29:40;135.52;;;130.63;;
57057;SDS011;55017;52.848;6.748;2023-03-01T14:34:35;134.07;;;129.18;;
57057;SDS011;55017;52.848;6.748;2023-03-01T14:39:46;137.85;;;132.55;;
57057;SDS011;55017;52.848;6.748;2023-03-01T14:42:12;137.55;;;132.45;;
57057;SDS011;55017;52.848;6.748;2023-03-01T14:44:40;137.02;;;132.00;;
57057;SDS011;55017;52.848;6.748;2023-03-01T14:47:10;135.52;;;130.52;;
57057;SDS011;55017;52.848;6.748;2023-03-01T14:49:38;137.15;;;132.13;;
57057;SDS011;55017;52.848;6.748;2023-03-01T14:52:06;139.93;;;134.73;;
57057;SDS011;55017;52.848;6.748;2023-03-01T14:54:39;133.75;;;129.05;;
57057;SDS011;55017;52.848;6.748;2023-03-01T14:57:11;140.32;;;135.15;;
57057;SDS011;55017;52.848;6.748;2023-03-01T14:59:39;134.80;;;130.00;;
57057;SDS011;55017;52.848;6.748;2023-03-01T15:02:08;134.50;;;129.60;;
57057;SDS011;55017;52.848;6.748;2023-03-01T15:04:37;137.52;;;132.43;;
57057;SDS011;55017;52.848;6.748;2023-03-01T15:07:03;140.57;;;135.48;;
57057;SDS011;55017;52.848;6.748;2023-03-01T15:09:29;132.50;;;127.70;;
57057;SDS011;55017;52.848;6.748;2023-03-01T15:11:57;135.90;;;131.00;;
57057;SDS011;55017;52.848;6.748;2023-03-01T15:14:27;135.52;;;130.50;;
57057;SDS011;55017;52.848;6.748;2023-03-01T15:16:54;136.15;;;131.35;;
57057;SDS011;55017;52.848;6.748;2023-03-01T15:19:27;135.02;;;130.02;;
57057;SDS011;55017;52.848;6.748;2023-03-01T15:21:54;134.57;;;129.68;;
57057;SDS011;55017;52.848;6.748;2023-03-01T15:24:23;133.50;;;128.60;;
57057;SDS011;55017;52.848;6.748;2023-03-01T15:29:19;136.27;;;131.43;;
57057;SDS011;55017;52.848;6.748;2023-03-01T15:34:44;137.35;;;132.45;;
57057;SDS011;55017;52.848;6.748;2023-03-01T15:37:37;135.13;;;130.20;;
57057;SDS011;55017;52.848;6.748;2023-03-01T15:39:56;133.85;;;128.95;;
57057;SDS011;55017;52.848;6.748;2023-03-01T15:42:36;136.15;;;130.98;;
57057;SDS011;55017;52.848;6.748;2023-03-01T15:47:46;135.13;;;130.05;;
57057;SDS011;55017;52.848;6.748;2023-03-01T15:50:23;135.15;;;130.05;;
57057;SDS011;55017;52.848;6.748;2023-03-01T15:52:50;140.70;;;135.45;;
57057;SDS011;55017;52.848;6.748;2023-03-01T15:55:29;137.43;;;132.38;;
57057;SDS011;55017;52.848;6.748;2023-03-01T15:58:03;138.70;;;133.40;;
57057;SDS011;55017;52.848;6.748;2023-03-01T16:00:30;137.57;;;132.23;;
57057;SDS011;55017;52.848;6.748;2023-03-01T16:02:56;138.82;;;133.52;;
57057;SDS011;55017;52.848;6.748;2023-03-01T16:05:23;135.65;;;130.35;;
57057;SDS011;55017;52.848;6.748;2023-03-01T16:07:49;139.60;;;134.27;;